Air Resources Laboratory banner image
Air Resources Laboratory web site National Oceanic and Atmospheric Administration (NOAA)

nh metar


KAFN 211752Z AUTO 20013G19KT 10SM CLR 18/14 A3011 RMK AO2 SLP202 T01830139
 10183 20050 58030=
KASH 211756Z 23007G14KT 200V270 10SM CLR 22/14 A3010=
KBML 211752Z AUTO 22012G20KT 10SM CLR 19/10 A2998 RMK AO2 PK WND 20026/1727
 SLP156 T01940100 10194 20000 58026=
KCON 211751Z AUTO 22006KT 10SM CLR 20/13 A3007 RMK AO2 SLP184 T02000128 10200
 20006 58033=
KCWN 211756Z AUTO 15007KT 10SM -SHSN FEW013 M08/M09 A3006 RMK AO2
 SHSNE03SHSNB11 SLP169 P0002 T10821088 11082 21150 58008 $=
KDAW 211751Z AUTO VRB06KT 10SM CLR 20/13 A3006 RMK AO2 SLP176 T02000133 10200
 20006 58027=
KEEN 211756Z AUTO 21009G16KT 10SM CLR 21/13 A3009 RMK AO2 SLP211 T02060133
 10206 20017 58037=
KHIE 211752Z AUTO 25014G20KT 10SM CLR 21/11 A2999 RMK AO2 SLP159 T02060106
 10211 20000 58029=
KLCI 211756Z AUTO 23011KT 10SM CLR 17/12 A3006 RMK AO2 SLP199 T01670117 10167
 20017 58029=
KLEB 211753Z 20004KT 10SM SCT065 12/10 A3007 RMK AO2 SLP184 T01170100 10128
 20050 56026=
KMHT 211753Z 19014G19KT 10SM FEW120 SCT200 BKN250 22/13 A3007 RMK AO2 SLP195
 T02220128 10222 20022 58030=
KMWN 211751Z 25067G79KT 70SM FEW003 SCT100 BKN180 09/06 RMK PK WND 26088/36
 10088 20063=
KPSM 211756Z 21008KT 10SM FEW150 BKN250 22/13 A3005 RMK AO2A SLP178 T02210132
 10221 20007 57030=